sensor_id;sensor_type;location;lat;lon;timestamp;P1;durP1;ratioP1;P2;durP2;ratioP2
13891;SDS011;7016;48.172;8.058;2022-08-04T00:00:29;4.05;;;2.38;;
13891;SDS011;7016;48.172;8.058;2022-08-04T00:11:22;3.45;;;2.10;;
13891;SDS011;7016;48.172;8.058;2022-08-04T00:13:56;2.67;;;2.28;;
13891;SDS011;7016;48.172;8.058;2022-08-04T00:16:31;5.57;;;2.10;;
13891;SDS011;7016;48.172;8.058;2022-08-04T00:19:02;3.50;;;2.30;;
13891;SDS011;7016;48.172;8.058;2022-08-04T00:21:30;3.45;;;2.45;;
13891;SDS011;7016;48.172;8.058;2022-08-04T00:24:02;3.65;;;2.28;;
13891;SDS011;7016;48.172;8.058;2022-08-04T00:26:29;5.20;;;2.25;;
13891;SDS011;7016;48.172;8.058;2022-08-04T00:28:56;3.47;;;2.10;;
13891;SDS011;7016;48.172;8.058;2022-08-04T00:31:22;2.63;;;2.40;;
13891;SDS011;7016;48.172;8.058;2022-08-04T00:33:49;2.75;;;2.22;;
13891;SDS011;7016;48.172;8.058;2022-08-04T00:36:15;3.97;;;2.33;;
13891;SDS011;7016;48.172;8.058;2022-08-04T00:38:42;3.50;;;2.42;;
13891;SDS011;7016;48.172;8.058;2022-08-04T00:46:33;3.90;;;2.38;;
13891;SDS011;7016;48.172;8.058;2022-08-04T00:49:33;4.55;;;2.30;;
13891;SDS011;7016;48.172;8.058;2022-08-04T00:57:29;3.95;;;2.40;;
13891;SDS011;7016;48.172;8.058;2022-08-04T01:00:14;3.53;;;2.03;;
13891;SDS011;7016;48.172;8.058;2022-08-04T01:08:05;3.63;;;2.30;;
13891;SDS011;7016;48.172;8.058;2022-08-04T01:11:01;2.50;;;2.10;;
13891;SDS011;7016;48.172;8.058;2022-08-04T01:16:04;2.63;;;2.38;;
13891;SDS011;7016;48.172;8.058;2022-08-04T01:23:48;4.13;;;2.40;;
13891;SDS011;7016;48.172;8.058;2022-08-04T01:34:20;3.85;;;2.47;;
13891;SDS011;7016;48.172;8.058;2022-08-04T01:36:57;3.45;;;2.42;;
13891;SDS011;7016;48.172;8.058;2022-08-04T01:39:30;3.00;;;2.53;;
13891;SDS011;7016;48.172;8.058;2022-08-04T01:42:05;2.88;;;2.45;;
13891;SDS011;7016;48.172;8.058;2022-08-04T01:44:31;2.97;;;2.42;;
13891;SDS011;7016;48.172;8.058;2022-08-04T01:47:00;4.18;;;2.63;;
13891;SDS011;7016;48.172;8.058;2022-08-04T01:49:30;6.55;;;2.60;;
13891;SDS011;7016;48.172;8.058;2022-08-04T01:51:56;2.85;;;2.40;;
13891;SDS011;7016;48.172;8.058;2022-08-04T01:54:23;4.40;;;2.42;;
13891;SDS011;7016;48.172;8.058;2022-08-04T01:56:52;4.72;;;2.60;;
13891;SDS011;7016;48.172;8.058;2022-08-04T01:59:19;2.88;;;2.40;;
13891;SDS011;7016;48.172;8.058;2022-08-04T02:01:46;6.88;;;2.22;;
13891;SDS011;7016;48.172;8.058;2022-08-04T02:04:13;2.92;;;2.40;;
13891;SDS011;7016;48.172;8.058;2022-08-04T02:15:35;3.20;;;2.38;;
13891;SDS011;7016;48.172;8.058;2022-08-04T02:20:47;5.38;;;2.40;;
13891;SDS011;7016;48.172;8.058;2022-08-04T02:23:21;6.65;;;2.70;;
13891;SDS011;7016;48.172;8.058;2022-08-04T02:25:55;2.83;;;2.30;;
13891;SDS011;7016;48.172;8.058;2022-08-04T02:33:53;3.30;;;2.33;;
13891;SDS011;7016;48.172;8.058;2022-08-04T02:36:29;3.60;;;2.42;;
13891;SDS011;7016;48.172;8.058;2022-08-04T02:38:59;4.32;;;2.55;;
13891;SDS011;7016;48.172;8.058;2022-08-04T02:41:28;3.60;;;2.63;;
13891;SDS011;7016;48.172;8.058;2022-08-04T02:43:59;3.13;;;2.50;;
13891;SDS011;7016;48.172;8.058;2022-08-04T02:46:27;4.47;;;2.78;;
13891;SDS011;7016;48.172;8.058;2022-08-04T02:48:56;5.30;;;2.70;;
13891;SDS011;7016;48.172;8.058;2022-08-04T02:51:29;6.40;;;2.50;;
13891;SDS011;7016;48.172;8.058;2022-08-04T02:53:58;3.03;;;2.60;;
13891;SDS011;7016;48.172;8.058;2022-08-04T02:56:26;3.58;;;2.85;;
13891;SDS011;7016;48.172;8.058;2022-08-04T02:58:58;3.38;;;2.45;;
13891;SDS011;7016;48.172;8.058;2022-08-04T03:01:27;3.53;;;2.83;;
13891;SDS011;7016;48.172;8.058;2022-08-04T03:53:44;3.95;;;2.90;;
13891;SDS011;7016;48.172;8.058;2022-08-04T04:07:58;3.80;;;2.80;;
13891;SDS011;7016;48.172;8.058;2022-08-04T04:16:25;5.72;;;2.92;;
13891;SDS011;7016;48.172;8.058;2022-08-04T04:24:58;3.95;;;3.00;;
13891;SDS011;7016;48.172;8.058;2022-08-04T04:27:51;5.60;;;2.90;;
13891;SDS011;7016;48.172;8.058;2022-08-04T04:30:44;3.60;;;2.80;;
13891;SDS011;7016;48.172;8.058;2022-08-04T04:47:30;3.10;;;2.67;;
13891;SDS011;7016;48.172;8.058;2022-08-04T04:53:10;4.53;;;2.90;;
13891;SDS011;7016;48.172;8.058;2022-08-04T04:55:52;6.53;;;2.92;;
13891;SDS011;7016;48.172;8.058;2022-08-04T04:58:30;3.95;;;3.10;;
13891;SDS011;7016;48.172;8.058;2022-08-04T05:04:20;5.00;;;2.28;;
13891;SDS011;7016;48.172;8.058;2022-08-04T05:10:04;3.42;;;2.40;;
13891;SDS011;7016;48.172;8.058;2022-08-04T05:13:09;4.05;;;2.58;;
13891;SDS011;7016;48.172;8.058;2022-08-04T05:15:36;2.88;;;2.50;;
13891;SDS011;7016;48.172;8.058;2022-08-04T05:18:06;4.40;;;2.78;;
13891;SDS011;7016;48.172;8.058;2022-08-04T05:20:39;5.03;;;2.97;;
13891;SDS011;7016;48.172;8.058;2022-08-04T05:23:16;4.45;;;2.92;;
13891;SDS011;7016;48.172;8.058;2022-08-04T05:25:52;4.75;;;2.65;;
13891;SDS011;7016;48.172;8.058;2022-08-04T05:28:27;5.00;;;2.67;;
13891;SDS011;7016;48.172;8.058;2022-08-04T05:31:03;4.10;;;2.97;;
13891;SDS011;7016;48.172;8.058;2022-08-04T05:33:53;4.03;;;2.55;;
13891;SDS011;7016;48.172;8.058;2022-08-04T05:36:22;7.35;;;2.95;;
13891;SDS011;7016;48.172;8.058;2022-08-04T05:38:54;3.75;;;2.90;;
13891;SDS011;7016;48.172;8.058;2022-08-04T05:41:23;3.08;;;2.63;;
13891;SDS011;7016;48.172;8.058;2022-08-04T05:43:52;6.75;;;2.83;;
13891;SDS011;7016;48.172;8.058;2022-08-04T05:46:19;4.22;;;2.47;;
13891;SDS011;7016;48.172;8.058;2022-08-04T05:48:44;7.47;;;2.78;;
13891;SDS011;7016;48.172;8.058;2022-08-04T05:51:12;3.60;;;2.83;;
13891;SDS011;7016;48.172;8.058;2022-08-04T05:53:39;3.17;;;2.80;;
13891;SDS011;7016;48.172;8.058;2022-08-04T05:56:09;6.15;;;2.70;;
13891;SDS011;7016;48.172;8.058;2022-08-04T05:58:39;6.80;;;2.90;;
13891;SDS011;7016;48.172;8.058;2022-08-04T06:01:07;5.90;;;2.95;;
13891;SDS011;7016;48.172;8.058;2022-08-04T06:03:34;3.10;;;2.45;;
13891;SDS011;7016;48.172;8.058;2022-08-04T06:06:01;3.38;;;2.65;;
13891;SDS011;7016;48.172;8.058;2022-08-04T06:08:28;3.42;;;2.60;;
13891;SDS011;7016;48.172;8.058;2022-08-04T06:10:54;5.18;;;2.40;;
13891;SDS011;7016;48.172;8.058;2022-08-04T06:13:35;3.20;;;2.30;;
13891;SDS011;7016;48.172;8.058;2022-08-04T06:16:06;3.28;;;2.53;;
13891;SDS011;7016;48.172;8.058;2022-08-04T06:18:34;4.50;;;3.35;;
13891;SDS011;7016;48.172;8.058;2022-08-04T06:21:01;6.35;;;3.83;;
13891;SDS011;7016;48.172;8.058;2022-08-04T06:23:30;4.32;;;2.88;;
13891;SDS011;7016;48.172;8.058;2022-08-04T06:25:59;6.35;;;2.58;;
13891;SDS011;7016;48.172;8.058;2022-08-04T06:28:26;3.58;;;2.60;;
13891;SDS011;7016;48.172;8.058;2022-08-04T06:30:52;5.80;;;2.70;;
13891;SDS011;7016;48.172;8.058;2022-08-04T06:33:19;4.10;;;2.92;;
13891;SDS011;7016;48.172;8.058;2022-08-04T06:35:57;6.55;;;3.38;;
13891;SDS011;7016;48.172;8.058;2022-08-04T06:38:28;7.65;;;3.33;;
13891;SDS011;7016;48.172;8.058;2022-08-04T06:40:56;5.30;;;2.90;;
13891;SDS011;7016;48.172;8.058;2022-08-04T06:43:23;4.05;;;3.00;;
13891;SDS011;7016;48.172;8.058;2022-08-04T06:45:51;5.47;;;3.08;;
13891;SDS011;7016;48.172;8.058;2022-08-04T06:48:18;6.55;;;3.30;;
13891;SDS011;7016;48.172;8.058;2022-08-04T06:50:46;4.65;;;3.10;;
13891;SDS011;7016;48.172;8.058;2022-08-04T06:53:13;8.75;;;3.00;;
13891;SDS011;7016;48.172;8.058;2022-08-04T06:55:41;6.43;;;3.50;;
13891;SDS011;7016;48.172;8.058;2022-08-04T06:58:09;6.78;;;3.30;;
13891;SDS011;7016;48.172;8.058;2022-08-04T07:00:35;4.93;;;3.28;;
13891;SDS011;7016;48.172;8.058;2022-08-04T07:03:03;4.68;;;3.40;;
13891;SDS011;7016;48.172;8.058;2022-08-04T07:05:31;4.63;;;3.60;;
13891;SDS011;7016;48.172;8.058;2022-08-04T07:07:57;5.85;;;3.50;;
13891;SDS011;7016;48.172;8.058;2022-08-04T07:10:27;6.85;;;3.72;;
13891;SDS011;7016;48.172;8.058;2022-08-04T07:12:54;6.63;;;3.70;;
13891;SDS011;7016;48.172;8.058;2022-08-04T07:15:24;5.20;;;3.58;;
13891;SDS011;7016;48.172;8.058;2022-08-04T07:17:51;7.25;;;3.65;;
13891;SDS011;7016;48.172;8.058;2022-08-04T07:20:18;5.47;;;3.40;;
13891;SDS011;7016;48.172;8.058;2022-08-04T07:22:43;5.70;;;3.20;;
13891;SDS011;7016;48.172;8.058;2022-08-04T07:25:13;7.35;;;3.10;;
13891;SDS011;7016;48.172;8.058;2022-08-04T07:27:40;6.47;;;3.45;;
13891;SDS011;7016;48.172;8.058;2022-08-04T07:30:07;4.18;;;3.33;;
13891;SDS011;7016;48.172;8.058;2022-08-04T07:32:34;7.55;;;3.30;;
13891;SDS011;7016;48.172;8.058;2022-08-04T07:35:01;5.80;;;2.90;;
13891;SDS011;7016;48.172;8.058;2022-08-04T07:37:28;4.90;;;3.25;;
13891;SDS011;7016;48.172;8.058;2022-08-04T07:39:54;4.93;;;3.10;;
13891;SDS011;7016;48.172;8.058;2022-08-04T07:42:20;5.10;;;2.58;;
13891;SDS011;7016;48.172;8.058;2022-08-04T07:44:46;4.50;;;2.38;;
13891;SDS011;7016;48.172;8.058;2022-08-04T07:47:12;4.95;;;2.53;;
13891;SDS011;7016;48.172;8.058;2022-08-04T07:49:39;4.53;;;2.70;;
13891;SDS011;7016;48.172;8.058;2022-08-04T07:52:06;7.05;;;3.25;;
13891;SDS011;7016;48.172;8.058;2022-08-04T07:54:32;7.00;;;3.00;;
13891;SDS011;7016;48.172;8.058;2022-08-04T07:56:59;4.07;;;2.38;;
13891;SDS011;7016;48.172;8.058;2022-08-04T07:59:25;3.50;;;2.40;;
13891;SDS011;7016;48.172;8.058;2022-08-04T08:01:51;5.40;;;2.60;;
13891;SDS011;7016;48.172;8.058;2022-08-04T08:04:18;3.97;;;2.20;;
13891;SDS011;7016;48.172;8.058;2022-08-04T08:06:44;5.72;;;2.50;;
13891;SDS011;7016;48.172;8.058;2022-08-04T08:09:15;3.15;;;2.00;;
13891;SDS011;7016;48.172;8.058;2022-08-04T08:11:47;3.72;;;2.30;;
13891;SDS011;7016;48.172;8.058;2022-08-04T08:14:14;3.83;;;2.10;;
13891;SDS011;7016;48.172;8.058;2022-08-04T08:16:41;3.20;;;1.88;;
13891;SDS011;7016;48.172;8.058;2022-08-04T08:19:07;6.10;;;2.10;;
13891;SDS011;7016;48.172;8.058;2022-08-04T08:21:33;5.10;;;2.30;;
13891;SDS011;7016;48.172;8.058;2022-08-04T08:24:00;7.35;;;2.20;;
13891;SDS011;7016;48.172;8.058;2022-08-04T08:26:26;3.58;;;1.95;;
13891;SDS011;7016;48.172;8.058;2022-08-04T08:28:52;2.80;;;1.90;;
13891;SDS011;7016;48.172;8.058;2022-08-04T08:31:18;2.67;;;2.10;;
13891;SDS011;7016;48.172;8.058;2022-08-04T08:33:44;5.70;;;2.33;;
13891;SDS011;7016;48.172;8.058;2022-08-04T08:39:00;7.33;;;2.10;;
13891;SDS011;7016;48.172;8.058;2022-08-04T09:00:48;3.50;;;2.10;;
13891;SDS011;7016;48.172;8.058;2022-08-04T09:03:31;8.43;;;2.42;;
13891;SDS011;7016;48.172;8.058;2022-08-04T09:06:23;3.55;;;2.17;;
13891;SDS011;7016;48.172;8.058;2022-08-04T09:09:17;3.72;;;1.85;;
13891;SDS011;7016;48.172;8.058;2022-08-04T09:12:08;2.63;;;1.73;;
13891;SDS011;7016;48.172;8.058;2022-08-04T09:25:50;3.00;;;1.70;;
13891;SDS011;7016;48.172;8.058;2022-08-04T09:28:22;2.65;;;1.70;;
13891;SDS011;7016;48.172;8.058;2022-08-04T09:47:46;5.25;;;2.25;;
13891;SDS011;7016;48.172;8.058;2022-08-04T09:50:41;4.45;;;1.77;;
13891;SDS011;7016;48.172;8.058;2022-08-04T10:01:00;6.07;;;1.80;;
13891;SDS011;7016;48.172;8.058;2022-08-04T10:03:44;2.92;;;1.70;;
13891;SDS011;7016;48.172;8.058;2022-08-04T10:06:35;3.92;;;1.88;;
13891;SDS011;7016;48.172;8.058;2022-08-04T10:19:55;3.38;;;1.80;;
13891;SDS011;7016;48.172;8.058;2022-08-04T10:22:40;6.43;;;1.90;;
13891;SDS011;7016;48.172;8.058;2022-08-04T10:25:16;3.60;;;2.05;;
13891;SDS011;7016;48.172;8.058;2022-08-04T10:27:59;4.40;;;2.50;;
13891;SDS011;7016;48.172;8.058;2022-08-04T10:30:29;4.07;;;2.10;;
13891;SDS011;7016;48.172;8.058;2022-08-04T10:35:50;3.30;;;1.90;;
13891;SDS011;7016;48.172;8.058;2022-08-04T10:46:38;2.53;;;2.00;;
13891;SDS011;7016;48.172;8.058;2022-08-04T10:49:15;2.20;;;1.60;;
13891;SDS011;7016;48.172;8.058;2022-08-04T10:51:46;3.25;;;1.80;;
13891;SDS011;7016;48.172;8.058;2022-08-04T10:54:26;2.50;;;1.58;;
13891;SDS011;7016;48.172;8.058;2022-08-04T11:00:10;2.95;;;1.80;;
13891;SDS011;7016;48.172;8.058;2022-08-04T11:05:35;3.78;;;1.90;;
13891;SDS011;7016;48.172;8.058;2022-08-04T11:08:15;2.40;;;1.65;;
13891;SDS011;7016;48.172;8.058;2022-08-04T11:11:10;4.55;;;1.52;;
13891;SDS011;7016;48.172;8.058;2022-08-04T11:13:39;2.70;;;1.75;;
13891;SDS011;7016;48.172;8.058;2022-08-04T11:16:12;4.07;;;1.42;;
13891;SDS011;7016;48.172;8.058;2022-08-04T11:18:48;2.00;;;1.38;;
13891;SDS011;7016;48.172;8.058;2022-08-04T11:21:23;2.08;;;1.42;;
13891;SDS011;7016;48.172;8.058;2022-08-04T11:24:13;2.40;;;1.25;;
13891;SDS011;7016;48.172;8.058;2022-08-04T11:26:55;2.75;;;1.45;;
13891;SDS011;7016;48.172;8.058;2022-08-04T11:32:21;3.53;;;1.42;;
13891;SDS011;7016;48.172;8.058;2022-08-04T11:40:39;2.50;;;1.10;;
13891;SDS011;7016;48.172;8.058;2022-08-04T11:43:08;1.85;;;1.30;;
13891;SDS011;7016;48.172;8.058;2022-08-04T11:45:45;1.67;;;1.30;;
13891;SDS011;7016;48.172;8.058;2022-08-04T11:48:28;2.10;;;1.40;;
13891;SDS011;7016;48.172;8.058;2022-08-04T11:51:26;2.20;;;1.20;;
13891;SDS011;7016;48.172;8.058;2022-08-04T11:53:53;2.17;;;1.40;;
13891;SDS011;7016;48.172;8.058;2022-08-04T11:56:20;2.10;;;1.35;;
13891;SDS011;7016;48.172;8.058;2022-08-04T11:58:46;4.40;;;1.33;;
13891;SDS011;7016;48.172;8.058;2022-08-04T12:01:27;1.75;;;1.20;;
13891;SDS011;7016;48.172;8.058;2022-08-04T12:14:42;6.28;;;1.30;;
13891;SDS011;7016;48.172;8.058;2022-08-04T12:17:18;2.80;;;1.30;;
13891;SDS011;7016;48.172;8.058;2022-08-04T12:19:49;2.58;;;1.08;;
13891;SDS011;7016;48.172;8.058;2022-08-04T12:22:25;2.03;;;1.38;;
13891;SDS011;7016;48.172;8.058;2022-08-04T12:24:58;2.10;;;1.40;;
13891;SDS011;7016;48.172;8.058;2022-08-04T12:30:19;3.03;;;1.10;;
13891;SDS011;7016;48.172;8.058;2022-08-04T12:32:47;2.35;;;0.90;;
13891;SDS011;7016;48.172;8.058;2022-08-04T12:35:26;2.95;;;1.30;;
13891;SDS011;7016;48.172;8.058;2022-08-04T12:38:05;1.95;;;1.00;;
13891;SDS011;7016;48.172;8.058;2022-08-04T12:40:38;1.45;;;1.00;;
13891;SDS011;7016;48.172;8.058;2022-08-04T12:43:09;1.88;;;1.02;;
13891;SDS011;7016;48.172;8.058;2022-08-04T12:45:40;2.70;;;1.20;;
13891;SDS011;7016;48.172;8.058;2022-08-04T12:48:12;4.65;;;0.90;;
13891;SDS011;7016;48.172;8.058;2022-08-04T12:50:39;3.03;;;0.90;;
13891;SDS011;7016;48.172;8.058;2022-08-04T12:53:12;1.00;;;0.70;;
13891;SDS011;7016;48.172;8.058;2022-08-04T12:55:43;2.65;;;0.82;;
13891;SDS011;7016;48.172;8.058;2022-08-04T12:58:20;1.42;;;0.90;;
13891;SDS011;7016;48.172;8.058;2022-08-04T13:00:52;1.20;;;0.80;;
13891;SDS011;7016;48.172;8.058;2022-08-04T13:03:21;1.42;;;0.80;;
13891;SDS011;7016;48.172;8.058;2022-08-04T13:05:52;1.75;;;0.80;;
13891;SDS011;7016;48.172;8.058;2022-08-04T13:08:20;1.65;;;0.80;;
13891;SDS011;7016;48.172;8.058;2022-08-04T13:10:48;2.28;;;1.00;;
13891;SDS011;7016;48.172;8.058;2022-08-04T13:13:20;2.58;;;0.85;;
13891;SDS011;7016;48.172;8.058;2022-08-04T13:15:56;1.70;;;0.90;;
13891;SDS011;7016;48.172;8.058;2022-08-04T13:18:28;2.70;;;0.98;;
13891;SDS011;7016;48.172;8.058;2022-08-04T13:23:36;1.63;;;0.90;;
13891;SDS011;7016;48.172;8.058;2022-08-04T13:26:03;2.83;;;0.93;;
13891;SDS011;7016;48.172;8.058;2022-08-04T13:28:30;1.73;;;0.90;;
13891;SDS011;7016;48.172;8.058;2022-08-04T13:31:01;0.90;;;0.80;;
13891;SDS011;7016;48.172;8.058;2022-08-04T13:33:31;2.75;;;0.80;;
13891;SDS011;7016;48.172;8.058;2022-08-04T13:35:59;1.25;;;0.98;;
13891;SDS011;7016;48.172;8.058;2022-08-04T13:38:26;2.30;;;0.90;;
13891;SDS011;7016;48.172;8.058;2022-08-04T13:40:59;3.08;;;0.85;;
13891;SDS011;7016;48.172;8.058;2022-08-04T13:43:29;1.85;;;1.02;;
13891;SDS011;7016;48.172;8.058;2022-08-04T13:46:07;3.60;;;0.90;;
13891;SDS011;7016;48.172;8.058;2022-08-04T13:48:37;5.55;;;1.20;;
13891;SDS011;7016;48.172;8.058;2022-08-04T13:51:06;2.15;;;1.20;;
13891;SDS011;7016;48.172;8.058;2022-08-04T13:53:35;4.35;;;0.93;;
13891;SDS011;7016;48.172;8.058;2022-08-04T13:56:04;2.60;;;0.90;;
13891;SDS011;7016;48.172;8.058;2022-08-04T13:58:33;3.13;;;0.93;;
13891;SDS011;7016;48.172;8.058;2022-08-04T14:01:13;1.90;;;0.95;;
13891;SDS011;7016;48.172;8.058;2022-08-04T14:03:45;3.60;;;0.80;;
13891;SDS011;7016;48.172;8.058;2022-08-04T14:08:53;1.55;;;1.00;;
13891;SDS011;7016;48.172;8.058;2022-08-04T14:11:43;3.20;;;1.00;;
13891;SDS011;7016;48.172;8.058;2022-08-04T14:14:14;1.77;;;0.90;;
13891;SDS011;7016;48.172;8.058;2022-08-04T14:17:08;3.58;;;0.90;;
13891;SDS011;7016;48.172;8.058;2022-08-04T14:25:03;1.73;;;0.90;;
13891;SDS011;7016;48.172;8.058;2022-08-04T14:27:39;0.90;;;0.80;;
13891;SDS011;7016;48.172;8.058;2022-08-04T14:30:06;1.20;;;1.00;;
13891;SDS011;7016;48.172;8.058;2022-08-04T14:35:29;1.30;;;1.00;;
13891;SDS011;7016;48.172;8.058;2022-08-04T14:38:06;1.88;;;0.90;;
13891;SDS011;7016;48.172;8.058;2022-08-04T14:40:36;3.58;;;0.85;;
13891;SDS011;7016;48.172;8.058;2022-08-04T14:43:03;1.67;;;0.95;;
13891;SDS011;7016;48.172;8.058;2022-08-04T14:47:56;5.55;;;1.00;;
13891;SDS011;7016;48.172;8.058;2022-08-04T14:50:31;4.32;;;1.00;;
13891;SDS011;7016;48.172;8.058;2022-08-04T14:53:01;2.67;;;1.00;;
13891;SDS011;7016;48.172;8.058;2022-08-04T14:55:29;1.88;;;0.98;;
13891;SDS011;7016;48.172;8.058;2022-08-04T14:57:54;1.58;;;0.90;;
13891;SDS011;7016;48.172;8.058;2022-08-04T15:00:28;2.95;;;1.23;;
13891;SDS011;7016;48.172;8.058;2022-08-04T15:03:03;1.30;;;0.75;;
13891;SDS011;7016;48.172;8.058;2022-08-04T15:07:58;2.95;;;1.00;;
13891;SDS011;7016;48.172;8.058;2022-08-04T15:10:24;1.90;;;0.80;;
13891;SDS011;7016;48.172;8.058;2022-08-04T15:12:50;1.25;;;0.80;;
13891;SDS011;7016;48.172;8.058;2022-08-04T15:15:17;1.15;;;0.80;;
13891;SDS011;7016;48.172;8.058;2022-08-04T15:17:42;1.88;;;1.00;;
13891;SDS011;7016;48.172;8.058;2022-08-04T15:20:09;1.20;;;0.85;;
13891;SDS011;7016;48.172;8.058;2022-08-04T15:22:36;4.63;;;0.90;;
13891;SDS011;7016;48.172;8.058;2022-08-04T15:25:02;2.20;;;1.13;;
13891;SDS011;7016;48.172;8.058;2022-08-04T15:27:29;1.40;;;1.00;;
13891;SDS011;7016;48.172;8.058;2022-08-04T15:30:00;1.65;;;1.05;;
13891;SDS011;7016;48.172;8.058;2022-08-04T15:32:29;1.77;;;0.95;;
13891;SDS011;7016;48.172;8.058;2022-08-04T15:35:07;1.35;;;0.90;;
13891;SDS011;7016;48.172;8.058;2022-08-04T15:40:29;3.35;;;0.85;;
13891;SDS011;7016;48.172;8.058;2022-08-04T15:46:02;2.10;;;1.10;;
13891;SDS011;7016;48.172;8.058;2022-08-04T15:48:29;1.55;;;0.95;;
13891;SDS011;7016;48.172;8.058;2022-08-04T15:58:56;2.40;;;1.00;;
13891;SDS011;7016;48.172;8.058;2022-08-04T16:01:22;2.50;;;1.20;;
13891;SDS011;7016;48.172;8.058;2022-08-04T16:03:49;2.63;;;1.10;;
13891;SDS011;7016;48.172;8.058;2022-08-04T16:22:10;1.65;;;1.00;;
13891;SDS011;7016;48.172;8.058;2022-08-04T16:24:55;1.73;;;0.90;;
13891;SDS011;7016;48.172;8.058;2022-08-04T16:27:33;3.55;;;1.20;;
13891;SDS011;7016;48.172;8.058;2022-08-04T16:30:05;1.77;;;1.10;;
13891;SDS011;7016;48.172;8.058;2022-08-04T16:32:38;1.35;;;1.00;;
13891;SDS011;7016;48.172;8.058;2022-08-04T16:35:17;1.48;;;1.10;;
13891;SDS011;7016;48.172;8.058;2022-08-04T16:37:51;2.30;;;1.23;;
13891;SDS011;7016;48.172;8.058;2022-08-04T16:42:57;2.17;;;1.25;;
13891;SDS011;7016;48.172;8.058;2022-08-04T16:45:46;2.70;;;1.10;;
13891;SDS011;7016;48.172;8.058;2022-08-04T16:48:12;3.35;;;1.10;;
13891;SDS011;7016;48.172;8.058;2022-08-04T16:53:38;4.32;;;1.30;;
13891;SDS011;7016;48.172;8.058;2022-08-04T16:56:08;2.80;;;1.30;;
13891;SDS011;7016;48.172;8.058;2022-08-04T16:58:35;1.92;;;1.20;;
13891;SDS011;7016;48.172;8.058;2022-08-04T17:01:11;2.53;;;1.20;;
13891;SDS011;7016;48.172;8.058;2022-08-04T17:03:40;2.92;;;1.40;;
13891;SDS011;7016;48.172;8.058;2022-08-04T17:06:14;2.58;;;1.38;;
13891;SDS011;7016;48.172;8.058;2022-08-04T17:08:42;2.67;;;1.20;;
13891;SDS011;7016;48.172;8.058;2022-08-04T17:11:09;3.80;;;1.40;;
13891;SDS011;7016;48.172;8.058;2022-08-04T17:13:39;1.95;;;1.38;;
13891;SDS011;7016;48.172;8.058;2022-08-04T17:16:08;2.92;;;1.48;;
13891;SDS011;7016;48.172;8.058;2022-08-04T17:18:40;1.83;;;1.20;;
13891;SDS011;7016;48.172;8.058;2022-08-04T17:21:08;2.67;;;1.17;;
13891;SDS011;7016;48.172;8.058;2022-08-04T17:23:39;2.20;;;1.13;;
13891;SDS011;7016;48.172;8.058;2022-08-04T17:26:08;9.50;;;1.70;;
13891;SDS011;7016;48.172;8.058;2022-08-04T17:28:36;2.88;;;1.40;;
13891;SDS011;7016;48.172;8.058;2022-08-04T17:31:05;3.60;;;1.13;;
13891;SDS011;7016;48.172;8.058;2022-08-04T17:33:34;2.67;;;1.27;;
13891;SDS011;7016;48.172;8.058;2022-08-04T17:36:01;2.08;;;1.27;;
13891;SDS011;7016;48.172;8.058;2022-08-04T17:38:33;5.88;;;1.48;;
13891;SDS011;7016;48.172;8.058;2022-08-04T17:41:00;6.07;;;1.40;;
13891;SDS011;7016;48.172;8.058;2022-08-04T17:44:01;3.40;;;1.40;;
13891;SDS011;7016;48.172;8.058;2022-08-04T17:54:27;5.32;;;1.42;;
13891;SDS011;7016;48.172;8.058;2022-08-04T17:56:58;7.05;;;1.50;;
13891;SDS011;7016;48.172;8.058;2022-08-04T17:59:44;3.10;;;1.58;;
13891;SDS011;7016;48.172;8.058;2022-08-04T18:02:12;5.03;;;1.63;;
13891;SDS011;7016;48.172;8.058;2022-08-04T18:07:15;6.90;;;1.83;;
13891;SDS011;7016;48.172;8.058;2022-08-04T18:12:24;8.85;;;1.40;;
13891;SDS011;7016;48.172;8.058;2022-08-04T18:15:00;2.97;;;1.40;;
13891;SDS011;7016;48.172;8.058;2022-08-04T18:17:43;4.88;;;1.38;;
13891;SDS011;7016;48.172;8.058;2022-08-04T18:20:14;9.40;;;1.70;;
13891;SDS011;7016;48.172;8.058;2022-08-04T18:22:44;2.88;;;1.50;;
13891;SDS011;7016;48.172;8.058;2022-08-04T18:25:11;4.13;;;1.40;;
13891;SDS011;7016;48.172;8.058;2022-08-04T18:27:51;7.35;;;1.55;;
13891;SDS011;7016;48.172;8.058;2022-08-04T18:30:18;2.08;;;1.58;;
13891;SDS011;7016;48.172;8.058;2022-08-04T18:32:46;3.85;;;1.60;;
13891;SDS011;7016;48.172;8.058;2022-08-04T18:35:12;3.42;;;1.58;;
13891;SDS011;7016;48.172;8.058;2022-08-04T18:37:39;4.28;;;1.40;;
13891;SDS011;7016;48.172;8.058;2022-08-04T18:40:06;1.60;;;1.27;;
13891;SDS011;7016;48.172;8.058;2022-08-04T18:42:33;6.18;;;1.70;;
13891;SDS011;7016;48.172;8.058;2022-08-04T18:44:59;3.78;;;1.60;;
13891;SDS011;7016;48.172;8.058;2022-08-04T18:47:25;8.35;;;1.92;;
13891;SDS011;7016;48.172;8.058;2022-08-04T18:49:51;2.97;;;1.58;;
13891;SDS011;7016;48.172;8.058;2022-08-04T18:52:17;3.85;;;1.58;;
13891;SDS011;7016;48.172;8.058;2022-08-04T18:54:43;7.28;;;2.00;;
13891;SDS011;7016;48.172;8.058;2022-08-04T18:57:09;3.53;;;1.73;;
13891;SDS011;7016;48.172;8.058;2022-08-04T18:59:35;2.33;;;1.70;;
13891;SDS011;7016;48.172;8.058;2022-08-04T19:02:02;2.67;;;1.70;;
13891;SDS011;7016;48.172;8.058;2022-08-04T19:04:28;1.42;;;1.30;;
13891;SDS011;7016;48.172;8.058;2022-08-04T19:06:54;2.45;;;1.50;;
13891;SDS011;7016;48.172;8.058;2022-08-04T19:09:19;4.82;;;1.90;;
13891;SDS011;7016;48.172;8.058;2022-08-04T19:11:47;4.05;;;1.80;;
13891;SDS011;7016;48.172;8.058;2022-08-04T19:14:12;8.35;;;1.70;;
13891;SDS011;7016;48.172;8.058;2022-08-04T19:16:38;2.75;;;1.77;;
13891;SDS011;7016;48.172;8.058;2022-08-04T19:19:04;4.55;;;1.90;;
13891;SDS011;7016;48.172;8.058;2022-08-04T19:21:30;9.20;;;1.80;;
13891;SDS011;7016;48.172;8.058;2022-08-04T19:23:57;3.92;;;1.90;;
13891;SDS011;7016;48.172;8.058;2022-08-04T19:26:23;2.10;;;1.52;;
13891;SDS011;7016;48.172;8.058;2022-08-04T19:28:49;4.40;;;1.67;;
13891;SDS011;7016;48.172;8.058;2022-08-04T19:31:16;3.33;;;1.73;;
13891;SDS011;7016;48.172;8.058;2022-08-04T19:33:43;6.78;;;1.80;;
13891;SDS011;7016;48.172;8.058;2022-08-04T19:36:09;7.03;;;1.95;;
13891;SDS011;7016;48.172;8.058;2022-08-04T19:38:36;20.90;;;2.90;;
13891;SDS011;7016;48.172;8.058;2022-08-04T19:41:03;7.47;;;2.10;;
13891;SDS011;7016;48.172;8.058;2022-08-04T19:43:30;3.92;;;1.90;;
13891;SDS011;7016;48.172;8.058;2022-08-04T19:45:57;4.65;;;1.80;;
13891;SDS011;7016;48.172;8.058;2022-08-04T19:48:22;3.25;;;1.50;;
13891;SDS011;7016;48.172;8.058;2022-08-04T19:50:48;4.43;;;1.70;;
13891;SDS011;7016;48.172;8.058;2022-08-04T19:53:14;4.63;;;2.05;;
13891;SDS011;7016;48.172;8.058;2022-08-04T19:55:42;4.28;;;1.88;;
13891;SDS011;7016;48.172;8.058;2022-08-04T19:58:09;4.20;;;1.98;;
13891;SDS011;7016;48.172;8.058;2022-08-04T20:00:36;5.90;;;2.00;;
13891;SDS011;7016;48.172;8.058;2022-08-04T20:03:03;4.03;;;1.98;;
13891;SDS011;7016;48.172;8.058;2022-08-04T20:05:30;3.28;;;2.10;;
13891;SDS011;7016;48.172;8.058;2022-08-04T20:07:56;6.28;;;1.60;;
13891;SDS011;7016;48.172;8.058;2022-08-04T20:10:22;6.35;;;1.88;;
13891;SDS011;7016;48.172;8.058;2022-08-04T20:12:47;4.95;;;2.00;;
13891;SDS011;7016;48.172;8.058;2022-08-04T20:15:13;6.28;;;1.90;;
13891;SDS011;7016;48.172;8.058;2022-08-04T20:17:40;3.95;;;1.77;;
13891;SDS011;7016;48.172;8.058;2022-08-04T20:20:06;6.20;;;1.70;;
13891;SDS011;7016;48.172;8.058;2022-08-04T20:22:32;4.15;;;1.60;;
13891;SDS011;7016;48.172;8.058;2022-08-04T20:24:58;4.50;;;1.90;;
13891;SDS011;7016;48.172;8.058;2022-08-04T20:27:24;3.92;;;1.77;;
13891;SDS011;7016;48.172;8.058;2022-08-04T20:29:51;3.65;;;2.20;;
13891;SDS011;7016;48.172;8.058;2022-08-04T20:32:21;4.20;;;1.92;;
13891;SDS011;7016;48.172;8.058;2022-08-04T20:34:49;5.32;;;2.10;;
13891;SDS011;7016;48.172;8.058;2022-08-04T20:37:15;4.10;;;1.75;;
13891;SDS011;7016;48.172;8.058;2022-08-04T20:39:41;3.10;;;2.00;;
13891;SDS011;7016;48.172;8.058;2022-08-04T20:42:07;4.88;;;1.88;;
13891;SDS011;7016;48.172;8.058;2022-08-04T20:44:32;6.10;;;1.80;;
13891;SDS011;7016;48.172;8.058;2022-08-04T20:46:58;2.00;;;1.73;;
13891;SDS011;7016;48.172;8.058;2022-08-04T20:49:24;3.33;;;2.17;;
13891;SDS011;7016;48.172;8.058;2022-08-04T20:51:49;4.10;;;1.83;;